Time;durP1;ratioP1;P1;durP2;ratioP2;P2;SDS_P1;SDS_P2;PMS_P1;PMS_P2;Temp;Humidity;BMP_temperature;BMP_pressure;BME280_temperature;BME280_humidity;BME280_pressure;Samples;Min_cycle;Max_cycle;Signal;HPM_P1;HPM_P2
2023/08/28 00:02:14;;;;;;;0.60;0.60;;;15.50;99.90;;;;;;5073676;28;20501;-81
2023/08/28 00:04:41;;;;;;;1.67;0.50;;;15.40;99.90;;;;;;5067465;28;21047;-81
2023/08/28 00:07:10;;;;;;;0.50;0.50;;;15.40;99.90;;;;;;5067171;28;20455;-82
2023/08/28 00:09:37;;;;;;;1.20;0.87;;;15.30;99.90;;;;;;5069016;28;20446;-83
2023/08/28 00:12:04;;;;;;;0.60;0.60;;;15.30;99.90;;;;;;5068354;28;20500;-81
2023/08/28 00:14:32;;;;;;;0.70;0.50;;;15.40;99.90;;;;;;5067088;28;21224;-80
2023/08/28 00:16:59;;;;;;;0.97;0.70;;;15.40;99.90;;;;;;5066956;28;20467;-81
2023/08/28 00:19:26;;;;;;;0.70;0.43;;;15.40;99.90;;;;;;5061287;28;21019;-81
2023/08/28 00:21:53;;;;;;;0.80;0.70;;;15.30;99.90;;;;;;5067044;28;20459;-82
2023/08/28 00:24:21;;;;;;;1.47;1.00;;;15.30;99.90;;;;;;5067922;28;20993;-82
2023/08/28 00:26:49;;;;;;;0.60;0.50;;;15.30;99.90;;;;;;5065906;28;20493;-83
2023/08/28 00:29:16;;;;;;;8.13;0.70;;;15.40;99.90;;;;;;5067739;28;20442;-82
2023/08/28 00:31:43;;;;;;;0.87;0.67;;;15.40;99.90;;;;;;5067861;28;20456;-82
2023/08/28 00:34:10;;;;;;;0.50;0.50;;;15.30;99.90;;;;;;5064723;28;20491;-81
2023/08/28 00:36:37;;;;;;;0.77;0.50;;;15.30;99.90;;;;;;5064879;28;20562;-81
2023/08/28 00:39:04;;;;;;;5.07;0.90;;;15.30;99.90;;;;;;5067095;28;20447;-80
2023/08/28 00:41:33;;;;;;;5.10;0.60;;;15.30;99.90;;;;;;5070162;28;20504;-81
2023/08/28 00:44:00;;;;;;;0.70;0.57;;;15.30;99.90;;;;;;5066820;28;20444;-82
2023/08/28 00:46:27;;;;;;;0.60;0.50;;;15.30;99.90;;;;;;5067020;28;20516;-81
2023/08/28 00:48:54;;;;;;;0.93;0.60;;;15.30;99.90;;;;;;5067751;28;20459;-81
2023/08/28 00:51:21;;;;;;;0.80;0.70;;;15.30;99.90;;;;;;5067013;28;21116;-81
2023/08/28 00:53:48;;;;;;;1.20;0.60;;;15.20;99.90;;;;;;5064193;28;20518;-80
2023/08/28 00:56:15;;;;;;;0.87;0.60;;;15.20;99.90;;;;;;5070597;28;20484;-80
2023/08/28 00:58:44;;;;;;;0.63;0.63;;;15.20;99.90;;;;;;5068800;28;20542;-82
2023/08/28 01:01:11;;;;;;;0.50;0.40;;;15.20;99.90;;;;;;5065140;28;20509;-80
2023/08/28 01:03:38;;;;;;;1.93;0.57;;;15.20;99.90;;;;;;5067825;28;20477;-80
2023/08/28 01:06:18;;;;;;;0.60;0.57;;;15.20;99.90;;;;;;5065080;28;20821;-80
2023/08/28 01:08:58;;;;;;;0.60;0.60;;;15.20;99.90;;;;;;5067198;28;20515;-78
2023/08/28 01:11:33;;;;;;;0.53;0.53;;;15.10;99.90;;;;;;5065302;28;20458;-80
2023/08/28 01:14:11;;;;;;;0.70;0.60;;;15.10;99.90;;;;;;5066661;28;20486;-79
2023/08/28 01:16:40;;;;;;;0.70;0.60;;;15.10;99.90;;;;;;5073926;28;20447;-81
2023/08/28 01:19:14;;;;;;;0.60;0.50;;;15.20;99.90;;;;;;5068221;28;20455;-81
2023/08/28 01:21:45;;;;;;;1.33;0.60;;;15.10;99.90;;;;;;5063031;28;20549;-80
2023/08/28 01:24:17;;;;;;;0.70;0.70;;;15.10;99.90;;;;;;5067475;28;20453;-81
2023/08/28 01:26:45;;;;;;;0.50;0.43;;;15.10;99.90;;;;;;5065906;28;20446;-80
2023/08/28 01:29:12;;;;;;;0.53;0.50;;;15.00;99.90;;;;;;5065647;28;20455;-80
2023/08/28 01:31:39;;;;;;;0.70;0.67;;;15.00;99.90;;;;;;5065785;28;20466;-79
2023/08/28 01:34:06;;;;;;;0.60;0.60;;;15.00;99.90;;;;;;5062230;28;20911;-81
2023/08/28 01:36:37;;;;;;;0.50;0.50;;;15.00;99.90;;;;;;5066991;28;20536;-80
2023/08/28 01:39:11;;;;;;;0.70;0.60;;;15.00;99.90;;;;;;5065660;28;20459;-80
2023/08/28 01:41:40;;;;;;;0.70;0.70;;;15.00;99.90;;;;;;5066062;28;20795;-79
2023/08/28 01:44:09;;;;;;;0.80;0.80;;;15.10;99.90;;;;;;5067626;28;20446;-80
2023/08/28 01:46:37;;;;;;;0.73;0.70;;;15.10;99.90;;;;;;5066513;28;20495;-79
2023/08/28 01:49:05;;;;;;;0.70;0.70;;;15.10;99.90;;;;;;5075625;28;20442;-79
2023/08/28 01:51:32;;;;;;;1.40;0.90;;;15.00;99.90;;;;;;5079014;28;20472;-79
2023/08/28 01:53:59;;;;;;;1.00;1.00;;;15.00;99.90;;;;;;5068155;28;20543;-82
2023/08/28 01:56:26;;;;;;;1.33;1.23;;;15.00;99.90;;;;;;5067609;28;20541;-80
2023/08/28 01:58:55;;;;;;;4.37;1.00;;;14.90;99.90;;;;;;5060604;28;20451;-78
2023/08/28 02:01:24;;;;;;;0.80;0.80;;;15.00;99.90;;;;;;5069651;28;20520;-80
2023/08/28 02:03:51;;;;;;;1.67;0.90;;;15.00;99.90;;;;;;5076150;28;20797;-82
2023/08/28 02:06:18;;;;;;;0.80;0.73;;;15.00;99.90;;;;;;5070521;28;20806;-82
2023/08/28 02:08:46;;;;;;;2.23;1.10;;;15.00;99.90;;;;;;5073730;28;20458;-79
2023/08/28 02:11:13;;;;;;;0.70;0.70;;;15.00;99.90;;;;;;5072252;28;20537;-78
2023/08/28 02:13:40;;;;;;;1.03;0.80;;;14.90;99.90;;;;;;5080972;28;20920;-79
2023/08/28 02:16:07;;;;;;;4.00;0.73;;;14.90;99.90;;;;;;5073079;28;21106;-82
2023/08/28 02:18:35;;;;;;;1.37;0.73;;;14.90;99.90;;;;;;5067866;28;20447;-81
2023/08/28 02:21:02;;;;;;;1.67;0.80;;;14.90;99.90;;;;;;5074644;28;20494;-80
2023/08/28 02:23:30;;;;;;;2.30;0.80;;;15.00;99.90;;;;;;5071984;28;20560;-78
2023/08/28 02:25:57;;;;;;;1.57;1.47;;;15.10;99.90;;;;;;5074881;28;21008;-77
2023/08/28 02:28:25;;;;;;;1.17;0.80;;;14.90;99.90;;;;;;5069415;28;20467;-80
2023/08/28 02:30:52;;;;;;;1.10;0.73;;;14.90;99.90;;;;;;5072557;28;20489;-80
2023/08/28 02:33:19;;;;;;;2.80;1.00;;;15.00;99.90;;;;;;5071817;28;20492;-80
2023/08/28 02:35:47;;;;;;;1.03;0.90;;;15.00;99.90;;;;;;5067059;28;20575;-81
2023/08/28 02:38:14;;;;;;;2.73;1.77;;;15.00;99.90;;;;;;5069929;28;20519;-80
2023/08/28 02:40:41;;;;;;;1.50;1.00;;;15.00;99.90;;;;;;5075733;28;20446;-79
2023/08/28 02:43:09;;;;;;;1.03;1.00;;;15.00;99.90;;;;;;5072223;28;20458;-78
2023/08/28 02:45:36;;;;;;;0.80;0.77;;;15.00;99.90;;;;;;5067135;28;20550;-80
2023/08/28 02:48:04;;;;;;;1.17;0.80;;;15.00;99.90;;;;;;5070397;28;20920;-81
2023/08/28 02:50:31;;;;;;;1.50;0.80;;;15.10;99.90;;;;;;5068143;28;21016;-82
2023/08/28 02:53:00;;;;;;;1.30;1.00;;;15.00;99.90;;;;;;5067964;28;21006;-81
2023/08/28 02:55:27;;;;;;;1.03;0.87;;;15.10;99.90;;;;;;5068074;28;20482;-79
2023/08/28 02:57:54;;;;;;;1.40;1.00;;;15.20;99.90;;;;;;5065635;28;20914;-79
2023/08/28 03:00:21;;;;;;;1.43;1.23;;;15.10;99.90;;;;;;5068726;28;20504;-80
2023/08/28 03:02:48;;;;;;;0.80;0.70;;;15.10;99.90;;;;;;5064299;28;20475;-81
2023/08/28 03:05:15;;;;;;;1.60;0.60;;;15.00;99.90;;;;;;5068377;28;21480;-80
2023/08/28 03:07:42;;;;;;;1.00;0.73;;;15.00;99.90;;;;;;5069223;28;20999;-80
2023/08/28 03:10:11;;;;;;;0.60;0.60;;;15.00;99.90;;;;;;5067654;28;20505;-79
2023/08/28 03:12:38;;;;;;;1.03;0.80;;;15.10;99.90;;;;;;5066851;28;20439;-78
2023/08/28 03:15:06;;;;;;;0.97;0.87;;;15.10;99.90;;;;;;5073557;28;20575;-78
2023/08/28 03:17:33;;;;;;;0.93;0.60;;;15.10;99.90;;;;;;5067748;28;20466;-80
2023/08/28 03:20:00;;;;;;;1.00;0.60;;;15.00;99.90;;;;;;5068617;28;21175;-81
2023/08/28 03:22:27;;;;;;;0.80;0.50;;;15.10;99.90;;;;;;5068258;28;20483;-79
2023/08/28 03:24:53;;;;;;;0.70;0.70;;;15.30;99.90;;;;;;5067659;28;20493;-81
2023/08/28 03:27:22;;;;;;;1.10;1.00;;;15.30;99.90;;;;;;5060208;28;20939;-82
2023/08/28 03:29:49;;;;;;;0.93;0.70;;;15.30;99.90;;;;;;5067429;28;21028;-80
2023/08/28 03:32:16;;;;;;;0.80;0.70;;;15.30;99.90;;;;;;5068393;28;20456;-80
2023/08/28 03:34:43;;;;;;;1.43;0.83;;;15.20;99.90;;;;;;5074527;28;20507;-80
2023/08/28 03:37:10;;;;;;;0.80;0.77;;;15.40;99.90;;;;;;5072357;28;21282;-81
2023/08/28 03:39:37;;;;;;;0.70;0.60;;;15.30;99.90;;;;;;5068966;28;20452;-82
2023/08/28 03:42:04;;;;;;;1.67;0.80;;;15.40;99.90;;;;;;5068876;28;20455;-81
2023/08/28 03:44:32;;;;;;;2.30;1.23;;;15.40;99.90;;;;;;5066001;28;21000;-82
2023/08/28 03:46:59;;;;;;;0.60;0.60;;;15.40;99.90;;;;;;5067634;28;20524;-79
2023/08/28 03:49:27;;;;;;;1.77;1.07;;;15.20;99.90;;;;;;5070669;28;21159;-80
2023/08/28 03:51:59;;;;;;;1.27;0.70;;;15.30;99.90;;;;;;5067725;28;20537;-81
2023/08/28 03:54:26;;;;;;;2.70;0.90;;;15.20;99.90;;;;;;5068099;28;21122;-80
2023/08/28 03:56:53;;;;;;;0.80;0.80;;;15.30;99.90;;;;;;5066098;28;20927;-80
2023/08/28 03:59:21;;;;;;;0.97;0.97;;;15.40;99.90;;;;;;5066149;28;20509;-79
2023/08/28 04:01:50;;;;;;;1.63;1.47;;;15.30;99.90;;;;;;5068628;28;20483;-82
2023/08/28 04:04:17;;;;;;;1.07;0.73;;;15.40;99.90;;;;;;5067712;28;20440;-80
2023/08/28 04:06:44;;;;;;;1.13;0.90;;;15.30;99.90;;;;;;5066890;28;20499;-79
2023/08/28 04:09:11;;;;;;;1.30;1.13;;;15.40;99.90;;;;;;5068476;28;20529;-81
2023/08/28 04:11:38;;;;;;;0.80;0.73;;;15.50;99.90;;;;;;5067478;28;20463;-81
2023/08/28 04:14:05;;;;;;;1.00;0.90;;;15.40;99.90;;;;;;5068192;28;20448;-80
2023/08/28 04:16:33;;;;;;;1.20;0.90;;;15.50;99.90;;;;;;5066052;28;20483;-79
2023/08/28 04:19:01;;;;;;;2.00;1.20;;;15.60;99.90;;;;;;5068460;28;20444;-81
2023/08/28 04:21:28;;;;;;;1.13;0.70;;;15.60;99.90;;;;;;5067117;28;20443;-79
2023/08/28 04:23:55;;;;;;;0.87;0.63;;;15.60;99.90;;;;;;5074708;28;20486;-80
2023/08/28 04:26:22;;;;;;;0.77;0.63;;;15.50;99.90;;;;;;5058083;28;20496;-82
2023/08/28 04:28:49;;;;;;;1.43;0.83;;;15.40;99.90;;;;;;5071745;28;20466;-78
2023/08/28 04:31:16;;;;;;;1.30;1.20;;;15.40;99.90;;;;;;5072797;28;20439;-79
2023/08/28 04:33:43;;;;;;;0.90;0.63;;;15.20;99.90;;;;;;5067517;28;20498;-79
2023/08/28 04:36:11;;;;;;;0.80;0.80;;;15.20;99.90;;;;;;5065459;28;20923;-79
2023/08/28 04:38:38;;;;;;;2.23;1.93;;;15.10;99.90;;;;;;5068262;28;20926;-78
2023/08/28 04:41:05;;;;;;;1.50;0.97;;;15.20;99.90;;;;;;5065758;28;20850;-79
2023/08/28 04:43:32;;;;;;;1.10;0.70;;;15.20;99.90;;;;;;5066775;28;20448;-78
2023/08/28 04:45:59;;;;;;;1.07;0.83;;;15.20;99.90;;;;;;5066496;28;20568;-81
2023/08/28 04:48:26;;;;;;;1.17;0.90;;;15.30;99.90;;;;;;5066589;28;20450;-81
2023/08/28 04:50:53;;;;;;;1.80;1.33;;;15.30;99.90;;;;;;5066704;28;20968;-81
2023/08/28 04:53:21;;;;;;;0.83;0.83;;;15.30;99.90;;;;;;5067107;28;20512;-83
2023/08/28 04:55:48;;;;;;;1.27;1.17;;;15.30;99.90;;;;;;5066256;28;20523;-80
2023/08/28 04:58:15;;;;;;;1.00;0.93;;;15.30;99.90;;;;;;5067493;28;20447;-77
2023/08/28 05:00:42;;;;;;;1.00;0.90;;;15.60;99.90;;;;;;5067079;28;21089;-80
2023/08/28 05:03:09;;;;;;;0.93;0.90;;;15.50;99.90;;;;;;5061747;28;20458;-80
2023/08/28 05:05:36;;;;;;;0.80;0.80;;;15.60;99.90;;;;;;5063905;28;20524;-80
2023/08/28 05:08:05;;;;;;;1.17;0.90;;;15.50;99.90;;;;;;5066901;28;20528;-81
2023/08/28 05:10:33;;;;;;;2.17;1.97;;;15.40;99.90;;;;;;5061681;28;20464;-82
2023/08/28 05:13:00;;;;;;;4.30;0.87;;;15.40;99.90;;;;;;5056991;28;20516;-82
2023/08/28 05:15:27;;;;;;;2.07;1.10;;;15.40;99.90;;;;;;5062794;28;22147;-80
2023/08/28 05:17:54;;;;;;;2.50;0.90;;;15.50;99.90;;;;;;5064337;28;20995;-83
2023/08/28 05:20:21;;;;;;;1.10;0.70;;;15.90;99.90;;;;;;5063623;28;20459;-81
2023/08/28 05:22:48;;;;;;;1.43;0.70;;;15.80;99.90;;;;;;5065747;28;20460;-81
2023/08/28 05:25:15;;;;;;;5.93;0.83;;;16.00;99.90;;;;;;5070743;28;20513;-82
2023/08/28 05:27:43;;;;;;;1.77;0.73;;;16.10;99.90;;;;;;5059807;28;20960;-82
2023/08/28 05:30:11;;;;;;;0.60;0.60;;;16.10;99.90;;;;;;5059299;28;20977;-80
2023/08/28 05:32:38;;;;;;;0.80;0.80;;;16.00;99.90;;;;;;5061572;28;20923;-81
2023/08/28 05:35:06;;;;;;;0.60;0.60;;;15.90;99.90;;;;;;5055794;28;20451;-79
2023/08/28 05:37:33;;;;;;;1.07;0.67;;;15.70;99.90;;;;;;5058181;28;20451;-82
2023/08/28 05:40:00;;;;;;;0.70;0.60;;;15.30;99.90;;;;;;5066967;28;21011;-81
2023/08/28 05:42:27;;;;;;;0.60;0.50;;;15.10;99.90;;;;;;5070331;28;20463;-81
2023/08/28 05:44:56;;;;;;;0.60;0.53;;;15.00;99.90;;;;;;5061057;28;20521;-82
2023/08/28 05:47:23;;;;;;;0.70;0.50;;;14.90;99.90;;;;;;5054008;28;20459;-80
2023/08/28 05:49:50;;;;;;;3.80;0.60;;;14.90;99.90;;;;;;5060882;28;20531;-81
2023/08/28 05:52:17;;;;;;;1.90;0.60;;;14.90;99.90;;;;;;5055775;28;20498;-81
2023/08/28 05:54:43;;;;;;;1.37;0.67;;;14.90;99.90;;;;;;5058095;28;20554;-81
2023/08/28 05:57:10;;;;;;;0.90;0.80;;;14.90;99.90;;;;;;5063142;28;20829;-81
2023/08/28 05:59:37;;;;;;;0.97;0.80;;;14.90;99.90;;;;;;5068801;28;20550;-81
2023/08/28 06:02:06;;;;;;;2.20;0.80;;;14.80;99.90;;;;;;5064625;28;20482;-82
2023/08/28 06:04:33;;;;;;;1.47;1.00;;;14.90;99.90;;;;;;5073640;28;20548;-80
2023/08/28 06:07:00;;;;;;;3.73;1.00;;;14.90;99.90;;;;;;5072217;28;20490;-81
2023/08/28 06:09:27;;;;;;;1.23;0.60;;;14.90;99.90;;;;;;5065280;28;20492;-81
2023/08/28 06:11:53;;;;;;;2.90;1.00;;;15.00;99.90;;;;;;5064628;28;20472;-79
2023/08/28 06:14:20;;;;;;;0.60;0.60;;;14.90;99.90;;;;;;5063842;28;20955;-81
2023/08/28 06:16:47;;;;;;;0.77;0.70;;;15.10;99.90;;;;;;5070070;28;20504;-81
2023/08/28 06:19:15;;;;;;;0.80;0.70;;;15.10;99.90;;;;;;5062705;28;20456;-81
2023/08/28 06:21:44;;;;;;;2.30;1.57;;;15.00;99.90;;;;;;5064564;28;20464;-80
2023/08/28 06:24:12;;;;;;;1.77;1.67;;;15.10;99.90;;;;;;5051037;28;20446;-81
2023/08/28 06:26:40;;;;;;;1.37;1.23;;;15.10;99.90;;;;;;5051660;28;20470;-80
2023/08/28 06:29:07;;;;;;;2.30;1.40;;;14.90;99.90;;;;;;5062974;28;20526;-80
2023/08/28 06:31:34;;;;;;;2.30;0.90;;;15.00;99.90;;;;;;5065152;28;20509;-82
2023/08/28 06:34:01;;;;;;;1.33;1.00;;;15.00;99.90;;;;;;5064698;28;20543;-80
2023/08/28 06:36:30;;;;;;;2.00;1.27;;;15.00;99.90;;;;;;5064606;28;20535;-82
2023/08/28 06:38:57;;;;;;;1.00;0.90;;;15.00;99.90;;;;;;5065611;28;20541;-83
2023/08/28 06:41:24;;;;;;;3.43;1.63;;;14.90;99.90;;;;;;5064509;28;20508;-80
2023/08/28 06:43:51;;;;;;;2.10;1.20;;;14.90;99.90;;;;;;5065075;28;20870;-79
2023/08/28 06:46:18;;;;;;;2.23;1.67;;;14.90;99.90;;;;;;5066217;28;20446;-83
2023/08/28 06:48:45;;;;;;;3.33;1.43;;;14.90;99.90;;;;;;5069287;28;20495;-79
2023/08/28 06:51:12;;;;;;;2.63;1.97;;;14.90;99.90;;;;;;5068741;28;20496;-78
2023/08/28 06:53:40;;;;;;;2.00;1.00;;;14.90;99.90;;;;;;5069334;28;20500;-80
2023/08/28 06:56:07;;;;;;;2.00;1.50;;;14.90;99.90;;;;;;5065711;28;21092;-80
2023/08/28 06:58:34;;;;;;;1.67;1.57;;;14.90;99.90;;;;;;5067900;28;20449;-84
2023/08/28 07:01:01;;;;;;;1.80;1.70;;;14.80;99.90;;;;;;5058546;28;21201;-78
2023/08/28 07:03:28;;;;;;;1.10;0.87;;;14.90;99.90;;;;;;5061018;28;20504;-78
2023/08/28 07:05:55;;;;;;;1.40;1.30;;;14.70;99.90;;;;;;5059140;28;20513;-78
2023/08/28 07:08:22;;;;;;;1.90;1.20;;;14.80;99.90;;;;;;5059182;28;20532;-78
2023/08/28 07:10:50;;;;;;;1.13;1.03;;;14.70;99.90;;;;;;5064695;28;20536;-79
2023/08/28 07:13:17;;;;;;;1.87;1.67;;;14.90;99.90;;;;;;5054234;28;20531;-78
2023/08/28 07:16:01;;;;;;;1.47;1.37;;;14.90;99.90;;;;;;5062205;28;20465;-80
2023/08/28 07:18:28;;;;;;;1.70;1.53;;;14.90;99.90;;;;;;5061595;28;21015;-79
2023/08/28 07:20:55;;;;;;;2.30;1.73;;;14.80;99.90;;;;;;5066354;28;20534;-81
2023/08/28 07:23:23;;;;;;;1.90;1.60;;;14.90;99.90;;;;;;5060659;28;20504;-80
2023/08/28 07:25:51;;;;;;;1.20;1.07;;;14.70;99.90;;;;;;5067768;28;20469;-79
2023/08/28 07:28:20;;;;;;;1.00;0.90;;;14.70;99.90;;;;;;5068377;28;20490;-81
2023/08/28 07:30:47;;;;;;;1.00;0.90;;;14.80;99.90;;;;;;5068362;28;20448;-81
2023/08/28 07:33:13;;;;;;;2.47;0.80;;;14.80;99.90;;;;;;5068039;28;20533;-79
2023/08/28 07:35:44;;;;;;;0.80;0.80;;;14.90;99.90;;;;;;5056778;28;20876;-80
2023/08/28 07:38:13;;;;;;;1.00;1.00;;;15.00;99.90;;;;;;5066032;28;20809;-77
2023/08/28 07:40:40;;;;;;;0.80;0.80;;;14.90;99.90;;;;;;5065357;28;20774;-82
2023/08/28 07:43:08;;;;;;;0.87;0.70;;;14.90;99.90;;;;;;5065798;28;20446;-79
2023/08/28 07:45:35;;;;;;;0.70;0.70;;;14.90;99.90;;;;;;5062218;28;20972;-77
2023/08/28 07:48:02;;;;;;;0.93;0.90;;;14.90;99.90;;;;;;5063827;28;20446;-80
2023/08/28 07:50:30;;;;;;;0.80;0.67;;;14.90;99.90;;;;;;5062193;28;20448;-79
2023/08/28 07:52:58;;;;;;;0.90;0.60;;;15.00;99.90;;;;;;5055441;28;20456;-79
2023/08/28 07:55:25;;;;;;;0.70;0.70;;;15.00;99.90;;;;;;5064096;28;20968;-81
2023/08/28 07:57:52;;;;;;;1.13;0.90;;;15.00;99.90;;;;;;5063557;28;20487;-83
2023/08/28 08:00:22;;;;;;;0.70;0.70;;;15.00;99.90;;;;;;5065072;28;20520;-79
2023/08/28 08:02:51;;;;;;;0.83;0.80;;;15.10;99.90;;;;;;5059184;28;20487;-85
2023/08/28 08:05:18;;;;;;;0.90;0.60;;;15.10;99.90;;;;;;5064375;28;20977;-79
2023/08/28 08:07:45;;;;;;;1.07;0.90;;;15.20;99.90;;;;;;5068255;28;20481;-81
2023/08/28 08:10:14;;;;;;;1.47;0.60;;;15.20;99.90;;;;;;5063474;28;20519;-82
2023/08/28 08:12:41;;;;;;;0.80;0.80;;;15.30;99.90;;;;;;5064732;28;20436;-80
2023/08/28 08:15:09;;;;;;;1.20;0.83;;;15.40;99.90;;;;;;5061613;28;20439;-80
2023/08/28 08:17:38;;;;;;;0.83;0.83;;;15.50;99.90;;;;;;5062813;28;21048;-80
2023/08/28 08:20:09;;;;;;;1.53;1.17;;;15.70;99.90;;;;;;5049367;28;20459;-81
2023/08/28 08:22:37;;;;;;;0.80;0.80;;;15.70;99.90;;;;;;5060061;28;20453;-79
2023/08/28 08:25:06;;;;;;;0.90;0.70;;;15.60;99.90;;;;;;5060667;28;20953;-82
2023/08/28 08:27:33;;;;;;;1.80;1.00;;;15.60;99.90;;;;;;5065567;28;21180;-83
2023/08/28 08:30:00;;;;;;;1.10;0.80;;;15.70;99.90;;;;;;5067772;28;20560;-80
2023/08/28 08:32:27;;;;;;;1.10;1.00;;;15.60;99.90;;;;;;5067176;28;20899;-82
2023/08/28 08:34:58;;;;;;;1.93;1.00;;;15.70;99.90;;;;;;5066212;28;20481;-79
2023/08/28 08:37:26;;;;;;;0.90;0.90;;;15.60;99.90;;;;;;5067441;28;20491;-79
2023/08/28 08:39:53;;;;;;;0.77;0.73;;;15.60;99.90;;;;;;5067153;28;20447;-79
2023/08/28 08:42:20;;;;;;;1.67;1.07;;;15.50;99.90;;;;;;5066849;28;20805;-79
2023/08/28 08:44:47;;;;;;;1.30;1.20;;;15.40;99.90;;;;;;5067559;28;20496;-80
2023/08/28 08:47:15;;;;;;;1.10;0.93;;;15.50;99.90;;;;;;5067560;28;20500;-82
2023/08/28 08:49:44;;;;;;;1.50;1.00;;;15.50;99.90;;;;;;5056778;28;20508;-81
2023/08/28 08:52:16;;;;;;;3.20;1.07;;;15.60;99.90;;;;;;5066739;28;20463;-80
2023/08/28 08:54:45;;;;;;;0.93;0.93;;;15.60;99.90;;;;;;5059452;28;20535;-82
2023/08/28 08:57:22;;;;;;;1.00;0.80;;;15.70;99.90;;;;;;5057784;28;20546;-84
2023/08/28 08:59:51;;;;;;;1.10;1.00;;;15.80;99.90;;;;;;5057406;28;20466;-80
2023/08/28 09:02:18;;;;;;;1.70;1.60;;;15.80;99.90;;;;;;5067704;28;20471;-83
2023/08/28 09:04:46;;;;;;;1.43;1.27;;;15.80;99.90;;;;;;5063360;28;21042;-78
2023/08/28 09:07:16;;;;;;;1.27;1.17;;;15.90;99.90;;;;;;5063013;28;20463;-81
2023/08/28 09:09:43;;;;;;;1.40;1.30;;;16.00;99.90;;;;;;5060406;28;21134;-79
2023/08/28 09:12:10;;;;;;;1.53;1.30;;;16.00;99.90;;;;;;5065379;28;20854;-79
2023/08/28 09:14:39;;;;;;;1.77;1.10;;;16.00;99.90;;;;;;5059600;28;20460;-81
2023/08/28 09:17:06;;;;;;;1.10;0.90;;;15.90;99.90;;;;;;5066057;28;20486;-80
2023/08/28 09:19:35;;;;;;;1.60;1.30;;;15.90;99.90;;;;;;5058196;28;20522;-79
2023/08/28 09:22:04;;;;;;;2.00;1.43;;;15.90;99.90;;;;;;5062953;28;20470;-80
2023/08/28 09:24:32;;;;;;;3.57;1.70;;;15.80;99.90;;;;;;5059914;28;21104;-81
2023/08/28 09:27:03;;;;;;;1.97;1.47;;;15.90;99.90;;;;;;5059881;28;20850;-79
2023/08/28 09:29:30;;;;;;;1.00;0.90;;;15.80;99.90;;;;;;5057773;28;20843;-84
2023/08/28 09:32:03;;;;;;;1.20;1.10;;;15.80;99.90;;;;;;5065948;28;20513;-80
2023/08/28 09:34:38;;;;;;;1.10;1.03;;;15.90;99.90;;;;;;5066339;28;20470;-79
2023/08/28 09:37:08;;;;;;;1.47;0.90;;;16.00;99.90;;;;;;5066657;28;20515;-78
2023/08/28 09:39:39;;;;;;;1.47;0.87;;;16.20;99.90;;;;;;5066521;28;20497;-79
2023/08/28 09:42:06;;;;;;;1.57;1.37;;;16.30;99.90;;;;;;5065865;28;20524;-80
2023/08/28 09:44:34;;;;;;;2.10;1.90;;;16.30;99.90;;;;;;5066180;28;20474;-79
2023/08/28 09:47:01;;;;;;;1.70;1.60;;;16.30;99.90;;;;;;5065898;28;20508;-81
2023/08/28 09:49:29;;;;;;;1.40;1.30;;;16.40;99.90;;;;;;5065306;28;20901;-81
2023/08/28 09:51:59;;;;;;;2.33;2.00;;;16.50;99.90;;;;;;5066544;28;20540;-79
2023/08/28 09:54:26;;;;;;;2.23;2.03;;;16.40;99.90;;;;;;5065362;28;20530;-79
2023/08/28 09:56:54;;;;;;;1.97;1.77;;;16.50;99.90;;;;;;5071056;28;21187;-79
2023/08/28 09:59:21;;;;;;;2.63;2.43;;;16.50;99.90;;;;;;5069876;28;20933;-79
2023/08/28 10:01:49;;;;;;;2.47;2.27;;;16.50;99.90;;;;;;5066793;28;20472;-81
2023/08/28 10:04:20;;;;;;;2.07;1.87;;;16.50;99.90;;;;;;5066235;28;20440;-79
2023/08/28 10:06:50;;;;;;;2.60;2.40;;;16.60;99.90;;;;;;5063409;28;20577;-78
2023/08/28 10:09:22;;;;;;;4.20;2.37;;;16.80;99.90;;;;;;5062464;28;20807;-80
2023/08/28 10:11:51;;;;;;;2.70;1.70;;;16.80;99.90;;;;;;5048340;28;20467;-79
2023/08/28 10:14:21;;;;;;;2.03;1.83;;;16.90;99.90;;;;;;5052761;28;20447;-80
2023/08/28 10:16:52;;;;;;;1.83;1.43;;;17.00;99.90;;;;;;5055085;28;20476;-81
2023/08/28 10:19:25;;;;;;;1.53;1.43;;;17.00;99.90;;;;;;5053062;28;20549;-79
2023/08/28 10:21:52;;;;;;;1.00;1.00;;;16.90;99.90;;;;;;5061538;28;20475;-79
2023/08/28 10:24:20;;;;;;;1.67;1.53;;;16.90;99.90;;;;;;5068052;28;20501;-84
2023/08/28 10:26:47;;;;;;;2.63;1.27;;;17.20;99.90;;;;;;5062468;28;20500;-83
2023/08/28 10:29:16;;;;;;;2.63;1.13;;;17.30;99.90;;;;;;5068731;28;20513;-80
2023/08/28 10:31:46;;;;;;;2.07;0.90;;;17.50;99.90;;;;;;5067143;28;20868;-79
2023/08/28 10:34:14;;;;;;;3.57;1.53;;;17.80;99.90;;;;;;5068219;28;20472;-79
2023/08/28 10:36:44;;;;;;;1.10;0.90;;;18.00;99.90;;;;;;5067166;28;20543;-83
2023/08/28 10:39:11;;;;;;;0.80;0.80;;;17.90;99.90;;;;;;5068173;28;20459;-81
2023/08/28 10:41:40;;;;;;;1.27;1.03;;;17.80;99.90;;;;;;5065432;28;20444;-83
2023/08/28 10:44:08;;;;;;;1.63;1.53;;;17.70;99.90;;;;;;5063078;28;20539;-79
2023/08/28 10:46:36;;;;;;;1.30;1.30;;;17.60;99.90;;;;;;5067210;28;20466;-78
2023/08/28 10:49:07;;;;;;;1.63;1.53;;;17.50;99.90;;;;;;5060605;28;20460;-83
2023/08/28 10:51:36;;;;;;;1.20;1.10;;;17.30;99.90;;;;;;5065083;28;20458;-82
2023/08/28 10:54:06;;;;;;;1.10;1.00;;;17.50;99.90;;;;;;5065334;28;20494;-82
2023/08/28 10:56:34;;;;;;;1.50;1.40;;;17.70;99.90;;;;;;5066232;28;20561;-80
2023/08/28 10:59:24;;;;;;;1.37;1.13;;;17.80;99.90;;;;;;5062075;28;20994;-80
2023/08/28 11:01:55;;;;;;;0.93;0.83;;;17.70;99.90;;;;;;5061654;28;20463;-82
2023/08/28 11:04:25;;;;;;;1.43;1.07;;;17.70;99.90;;;;;;5066628;28;20464;-84
2023/08/28 11:06:52;;;;;;;1.50;1.23;;;17.70;99.90;;;;;;5063890;28;20512;-81
2023/08/28 11:09:36;;;;;;;1.00;1.00;;;17.50;99.90;;;;;;5064993;28;20452;-81
2023/08/28 11:12:28;;;;;;;1.63;1.53;;;17.50;99.90;;;;;;5064597;28;21168;-82
2023/08/28 11:15:03;;;;;;;1.73;1.13;;;17.40;99.90;;;;;;5061055;28;20544;-79
2023/08/28 11:17:32;;;;;;;1.10;1.00;;;17.60;99.90;;;;;;5061796;28;20981;-80
2023/08/28 11:20:11;;;;;;;1.63;1.50;;;17.60;99.90;;;;;;5057370;28;20539;-80
2023/08/28 11:22:40;;;;;;;1.10;1.00;;;17.60;99.90;;;;;;5062256;28;20447;-78
2023/08/28 11:25:09;;;;;;;2.40;1.50;;;17.50;99.90;;;;;;5057541;28;20472;-79
2023/08/28 11:27:43;;;;;;;1.40;0.90;;;17.40;99.90;;;;;;5066021;28;20464;-79
2023/08/28 11:30:11;;;;;;;1.63;1.53;;;17.40;99.90;;;;;;5068766;28;20520;-78
2023/08/28 11:32:40;;;;;;;1.60;1.30;;;17.40;99.90;;;;;;5068407;28;20444;-79
2023/08/28 11:35:12;;;;;;;3.93;1.63;;;17.30;99.90;;;;;;5067807;28;21010;-82
2023/08/28 11:37:42;;;;;;;2.33;2.13;;;17.40;99.90;;;;;;5067881;28;20467;-82
2023/08/28 11:40:10;;;;;;;1.57;1.47;;;17.40;99.90;;;;;;5068154;28;20467;-78
2023/08/28 11:42:39;;;;;;;1.73;1.50;;;17.50;99.90;;;;;;5068238;28;20445;-80
2023/08/28 11:45:07;;;;;;;2.70;1.33;;;17.60;99.90;;;;;;5067918;28;20452;-79
2023/08/28 11:47:36;;;;;;;2.20;1.60;;;17.60;99.90;;;;;;5071173;28;20469;-79
2023/08/28 11:50:05;;;;;;;4.60;1.77;;;17.70;99.90;;;;;;5070016;28;20459;-79
2023/08/28 11:52:34;;;;;;;3.57;1.80;;;17.60;99.90;;;;;;5069108;28;20505;-85
2023/08/28 11:55:03;;;;;;;2.03;1.93;;;17.70;99.90;;;;;;5061018;28;20448;-80
2023/08/28 11:57:31;;;;;;;2.30;2.10;;;17.70;99.90;;;;;;5067619;28;20479;-79
2023/08/28 12:00:00;;;;;;;1.53;1.37;;;17.70;99.90;;;;;;5067830;28;21015;-83
2023/08/28 12:02:28;;;;;;;4.93;1.30;;;17.60;99.90;;;;;;5067186;28;20562;-79
2023/08/28 12:04:55;;;;;;;1.50;1.40;;;17.60;99.90;;;;;;5066070;28;20464;-85
2023/08/28 12:07:23;;;;;;;2.00;1.50;;;17.50;99.90;;;;;;5063959;28;20468;-80
2023/08/28 12:09:54;;;;;;;2.30;2.10;;;17.40;99.90;;;;;;5061682;28;20509;-79
2023/08/28 12:12:22;;;;;;;1.73;1.60;;;17.40;99.90;;;;;;5067278;28;20824;-80
2023/08/28 12:14:51;;;;;;;3.03;1.93;;;17.40;99.90;;;;;;5067479;28;20911;-79
2023/08/28 12:17:20;;;;;;;2.37;1.60;;;17.40;99.90;;;;;;5068473;28;20443;-79
2023/08/28 12:19:50;;;;;;;2.07;1.97;;;17.40;99.90;;;;;;5068061;28;20538;-79
2023/08/28 12:22:20;;;;;;;1.63;1.33;;;17.30;99.90;;;;;;5068279;28;20439;-79
2023/08/28 12:24:49;;;;;;;0.80;0.80;;;17.10;99.90;;;;;;5065933;28;20721;-82
2023/08/28 12:27:24;;;;;;;2.07;1.67;;;17.00;99.90;;;;;;5063306;28;20543;-79
2023/08/28 12:29:51;;;;;;;2.63;1.50;;;16.90;99.90;;;;;;5057818;28;20552;-80
2023/08/28 12:32:20;;;;;;;1.83;1.53;;;16.80;99.90;;;;;;5063537;28;20529;-80
2023/08/28 12:34:48;;;;;;;2.20;1.40;;;16.70;99.90;;;;;;5062780;28;20970;-79
2023/08/28 12:37:16;;;;;;;1.70;1.10;;;16.70;99.90;;;;;;5060907;28;20452;-78
2023/08/28 12:39:47;;;;;;;2.50;1.23;;;16.70;99.90;;;;;;5063509;28;20499;-80
2023/08/28 12:42:14;;;;;;;1.40;1.30;;;16.70;99.90;;;;;;5060107;28;20517;-79
2023/08/28 12:44:44;;;;;;;1.30;0.87;;;16.70;99.90;;;;;;5064937;28;21169;-79
2023/08/28 12:47:12;;;;;;;1.43;0.70;;;16.70;99.90;;;;;;5061371;28;20489;-77
2023/08/28 12:49:40;;;;;;;1.23;0.80;;;16.70;99.90;;;;;;5062406;28;20463;-79
2023/08/28 12:52:08;;;;;;;1.20;1.10;;;16.60;99.90;;;;;;5059397;28;20459;-78
2023/08/28 12:54:35;;;;;;;1.43;0.97;;;16.60;99.90;;;;;;5060787;28;20527;-80